createdAt,value
2023-01-10T00:02:27.660Z,79.22
2023-01-10T00:04:56.183Z,80.75
2023-01-10T00:07:25.153Z,79.13
2023-01-10T00:09:53.996Z,82.97
2023-01-10T00:12:39.988Z,91.10
2023-01-10T00:15:11.504Z,83.53
2023-01-10T00:17:40.429Z,88.35
2023-01-10T00:20:10.747Z,77.30
2023-01-10T00:22:39.307Z,84.22
2023-01-10T00:25:08.802Z,86.85
2023-01-10T00:27:37.801Z,78.67
2023-01-10T00:30:14.194Z,78.30
2023-01-10T00:32:45.382Z,84.70
2023-01-10T00:35:14.666Z,86.15
2023-01-10T00:37:43.370Z,85.22
2023-01-10T00:40:13.982Z,91.25
2023-01-10T00:43:00.135Z,98.80
2023-01-10T00:45:30.208Z,92.80
2023-01-10T00:48:00.577Z,100.80
2023-01-10T00:52:58.324Z,115.45
2023-01-10T00:55:26.966Z,99.63
2023-01-10T00:57:56.755Z,113.93
2023-01-10T01:00:25.831Z,100.38
2023-01-10T01:02:55.974Z,105.93
2023-01-10T01:05:27.353Z,103.00
2023-01-10T01:07:55.835Z,96.60
2023-01-10T01:10:27.915Z,101.82
2023-01-10T01:12:58.663Z,99.20
2023-01-10T01:15:28.964Z,102.78
2023-01-10T01:20:28.405Z,88.57
2023-01-10T01:22:57.050Z,104.70
2023-01-10T01:25:26.367Z,96.57
2023-01-10T01:27:55.254Z,98.75
2023-01-10T01:30:24.475Z,101.25
2023-01-10T01:32:53.361Z,95.43
2023-01-10T01:35:22.350Z,102.78
2023-01-10T01:37:52.589Z,103.60
2023-01-10T01:40:22.514Z,95.53
2023-01-10T01:42:55.764Z,97.30
2023-01-10T01:45:42.233Z,97.68
2023-01-10T01:48:25.255Z,90.82
2023-01-10T01:50:59.482Z,85.40
2023-01-10T01:53:32.776Z,90.18
2023-01-10T01:56:05.303Z,89.28
2023-01-10T01:58:39.822Z,89.38
2023-01-10T02:01:08.899Z,91.93
2023-01-10T02:03:39.338Z,88.68
2023-01-10T02:06:09.030Z,92.47
2023-01-10T02:08:41.278Z,88.85
2023-01-10T02:11:11.862Z,96.10
2023-01-10T02:13:42.356Z,98.30
2023-01-10T02:16:11.569Z,96.20
2023-01-10T02:18:42.808Z,101.40
2023-01-10T02:21:44.084Z,89.43
2023-01-10T02:24:43.491Z,90.25
2023-01-10T02:27:16.487Z,93.38
2023-01-10T02:30:32.686Z,92.28
2023-01-10T02:33:07.443Z,87.10
2023-01-10T02:36:02.625Z,89.50
2023-01-10T02:38:40.456Z,84.32
2023-01-10T02:41:16.503Z,96.28
2023-01-10T02:43:48.500Z,87.03
2023-01-10T02:46:21.548Z,92.10
2023-01-10T02:48:52.120Z,92.35
2023-01-10T02:51:22.554Z,97.32
2023-01-10T02:53:55.357Z,86.57
2023-01-10T02:56:40.551Z,100.43
2023-01-10T02:59:39.776Z,95.38
2023-01-10T03:02:18.393Z,91.27
2023-01-10T03:04:54.243Z,91.97
2023-01-10T03:07:27.627Z,92.18
2023-01-10T03:10:00.723Z,92.40
2023-01-10T03:12:39.255Z,90.30
2023-01-10T03:15:09.573Z,90.43
2023-01-10T03:20:10.070Z,90.03
2023-01-10T03:22:41.113Z,82.82
2023-01-10T03:25:13.558Z,88.07
2023-01-10T03:27:49.608Z,92.68
2023-01-10T03:30:22.450Z,89.43
2023-01-10T03:32:51.491Z,91.55
2023-01-10T03:35:24.185Z,83.70
2023-01-10T03:37:58.407Z,90.45
2023-01-10T03:40:32.218Z,96.20
2023-01-10T03:43:22.031Z,89.78
2023-01-10T03:45:53.332Z,89.82
2023-01-10T03:48:23.626Z,89.95
2023-01-10T03:53:22.578Z,86.53
2023-01-10T03:55:51.064Z,88.75
2023-01-10T03:58:21.953Z,94.50
2023-01-10T04:00:51.014Z,91.28
2023-01-10T04:03:19.922Z,88.50
2023-01-10T04:05:48.902Z,83.90
2023-01-10T04:08:19.559Z,86.03
2023-01-10T04:13:19.228Z,91.15
2023-01-10T04:15:48.114Z,87.22
2023-01-10T04:18:17.300Z,83.75
2023-01-10T04:20:46.276Z,78.53
2023-01-10T04:23:15.262Z,83.15
2023-01-10T04:25:50.894Z,83.30
2023-01-10T04:28:19.803Z,87.78
2023-01-10T04:30:48.719Z,80.50
2023-01-10T04:33:17.697Z,83.00
2023-01-10T04:35:49.287Z,83.03
2023-01-10T04:38:18.667Z,86.10
2023-01-10T04:40:54.201Z,83.22
2023-01-10T04:43:23.431Z,87.93
2023-01-10T04:45:52.461Z,83.63
2023-01-10T04:48:21.366Z,78.20
2023-01-10T04:50:53.510Z,83.40
2023-01-10T04:53:22.793Z,77.47
2023-01-10T04:55:53.022Z,76.53
2023-01-10T04:58:22.165Z,83.25
2023-01-10T05:00:52.638Z,91.88
2023-01-10T05:03:21.585Z,78.25
2023-01-10T05:05:51.156Z,68.43
2023-01-10T05:08:20.032Z,68.72
2023-01-10T05:10:48.631Z,76.93
2023-01-10T05:13:19.029Z,72.57
2023-01-10T05:15:48.739Z,69.82
2023-01-10T05:18:17.620Z,72.85
2023-01-10T05:20:46.526Z,70.10
2023-01-10T05:23:15.430Z,73.85
2023-01-10T05:25:43.913Z,75.30
2023-01-10T05:28:12.760Z,71.97
2023-01-10T05:30:43.308Z,82.60
2023-01-10T05:33:12.217Z,75.10
2023-01-10T05:35:41.202Z,67.60
2023-01-10T05:38:10.101Z,73.70
2023-01-10T05:40:38.611Z,78.20
2023-01-10T05:43:07.551Z,68.15
2023-01-10T05:45:36.481Z,70.13
2023-01-10T05:48:07.445Z,75.95
2023-01-10T05:50:36.337Z,69.38
2023-01-10T05:53:06.002Z,75.05
2023-01-10T05:55:34.891Z,74.00
2023-01-10T05:58:03.895Z,74.03
2023-01-10T06:00:32.893Z,76.50
2023-01-10T06:03:01.866Z,75.18
2023-01-10T06:05:32.366Z,75.25
2023-01-10T06:10:29.734Z,73.05
2023-01-10T06:12:58.666Z,74.43
2023-01-10T06:15:28.202Z,80.15
2023-01-10T06:17:57.303Z,76.07
2023-01-10T06:23:02.419Z,76.50
2023-01-10T06:25:31.503Z,79.40
2023-01-10T06:28:01.797Z,66.18
2023-01-10T06:33:02.749Z,70.45
2023-01-10T06:35:31.746Z,67.43
2023-01-10T06:38:02.113Z,69.57
2023-01-10T06:40:31.443Z,71.97
2023-01-10T06:43:00.497Z,68.85
2023-01-10T06:45:31.202Z,69.57
2023-01-10T06:48:01.219Z,70.03
2023-01-10T06:50:30.134Z,70.18
2023-01-10T06:52:59.562Z,72.53
2023-01-10T06:55:30.234Z,74.28
2023-01-10T06:57:59.478Z,72.63
2023-01-10T07:00:29.192Z,70.22
2023-01-10T07:03:02.829Z,77.38
2023-01-10T07:05:32.000Z,67.35
2023-01-10T07:08:01.640Z,81.30
2023-01-10T07:10:31.562Z,70.22
2023-01-10T07:15:30.215Z,70.45
2023-01-10T07:17:59.277Z,63.50
2023-01-10T07:20:28.770Z,67.65
2023-01-10T07:22:58.256Z,64.10
2023-01-10T07:25:30.968Z,60.53
2023-01-10T07:28:01.314Z,66.18
2023-01-10T07:32:59.237Z,60.55
2023-01-10T07:35:28.213Z,55.93
2023-01-10T07:37:59.706Z,55.25
2023-01-10T07:40:28.818Z,57.28
2023-01-10T07:42:58.434Z,55.38
2023-01-10T07:45:30.099Z,57.38
2023-01-10T07:47:59.199Z,59.15
2023-01-10T07:50:29.109Z,64.82
2023-01-10T07:52:57.675Z,56.33
2023-01-10T07:55:27.493Z,56.60
2023-01-10T07:57:56.420Z,52.80
2023-01-10T08:00:25.689Z,54.88
2023-01-10T08:02:56.642Z,55.65
2023-01-10T08:05:25.717Z,50.97
2023-01-10T08:07:56.307Z,51.08
2023-01-10T08:10:26.095Z,60.15
2023-01-10T08:12:55.567Z,53.72
2023-01-10T08:15:24.511Z,60.23
2023-01-10T08:17:53.396Z,54.53
2023-01-10T08:20:25.244Z,53.72
2023-01-10T08:22:53.875Z,53.80
2023-01-10T08:25:22.806Z,51.00
2023-01-10T08:27:51.584Z,57.63
2023-01-10T08:30:20.960Z,56.65
2023-01-10T08:32:50.787Z,56.60
2023-01-10T08:35:19.932Z,57.25
2023-01-10T08:37:49.804Z,52.47
2023-01-10T08:40:18.761Z,55.40
2023-01-10T08:42:47.600Z,54.25
2023-01-10T08:45:16.882Z,54.53
2023-01-10T08:47:45.761Z,50.75
2023-01-10T08:50:14.822Z,50.15
2023-01-10T08:52:43.283Z,44.17
2023-01-10T08:55:13.675Z,49.85
2023-01-10T08:57:42.642Z,52.90
2023-01-10T09:00:13.365Z,45.92
2023-01-10T09:02:42.354Z,44.63
2023-01-10T09:05:22.241Z,51.30
2023-01-10T09:07:54.968Z,43.05
2023-01-10T09:10:25.224Z,47.97
2023-01-10T09:12:57.326Z,50.55
2023-01-10T09:15:27.950Z,46.30
2023-01-10T09:17:57.249Z,49.25
2023-01-10T09:20:27.071Z,54.42
2023-01-10T09:22:55.589Z,44.10
2023-01-10T09:25:26.256Z,44.65
2023-01-10T09:27:58.976Z,48.92
2023-01-10T09:30:28.483Z,52.17
2023-01-10T09:32:58.672Z,47.70
2023-01-10T09:35:29.196Z,47.05
2023-01-10T09:40:35.371Z,47.08
2023-01-10T09:43:10.372Z,46.72
2023-01-10T09:45:44.405Z,43.20
2023-01-10T09:48:17.569Z,48.80
2023-01-10T09:50:52.546Z,48.17
2023-01-10T09:53:24.132Z,44.25
2023-01-10T09:55:56.314Z,47.78
2023-01-10T09:58:27.827Z,48.55
2023-01-10T10:01:00.942Z,46.13
2023-01-10T10:03:33.112Z,45.72
2023-01-10T10:06:11.687Z,45.78
2023-01-10T10:08:41.964Z,42.05
2023-01-10T10:11:24.617Z,43.47
2023-01-10T10:13:56.951Z,45.47
2023-01-10T10:16:32.970Z,44.67
2023-01-10T10:19:10.241Z,46.95
2023-01-10T10:21:44.592Z,51.33
2023-01-10T10:24:35.790Z,48.42
2023-01-10T10:27:14.123Z,47.65
2023-01-10T10:30:01.939Z,43.58
2023-01-10T10:32:43.130Z,48.30
2023-01-10T10:35:15.805Z,46.17
2023-01-10T10:37:47.433Z,40.10
2023-01-10T10:40:20.322Z,47.38
2023-01-10T10:42:53.540Z,44.10
2023-01-10T10:45:26.230Z,44.20
2023-01-10T10:48:00.508Z,48.97
2023-01-10T10:50:33.117Z,48.97
2023-01-10T10:53:02.535Z,47.65
2023-01-10T10:55:34.855Z,45.45
2023-01-10T10:58:06.302Z,45.90
2023-01-10T11:00:36.047Z,45.30
2023-01-10T11:03:18.256Z,45.60
2023-01-10T11:05:50.232Z,45.40
2023-01-10T11:08:20.033Z,49.47
2023-01-10T11:10:50.484Z,46.33
2023-01-10T11:13:28.615Z,45.20
2023-01-10T11:15:57.595Z,45.38
2023-01-10T11:18:28.396Z,46.47
2023-01-10T11:21:00.372Z,51.10
2023-01-10T11:23:39.331Z,42.78
2023-01-10T11:26:11.271Z,44.40
2023-01-10T11:28:41.502Z,47.10
2023-01-10T11:31:10.564Z,41.50
2023-01-10T11:33:40.342Z,46.25
2023-01-10T11:36:12.970Z,46.47
2023-01-10T11:38:41.960Z,51.45
2023-01-10T11:41:27.349Z,46.88
2023-01-10T11:44:17.005Z,42.88
2023-01-10T11:46:46.373Z,43.92
2023-01-10T11:49:19.922Z,42.42
2023-01-10T11:51:50.321Z,42.40
2023-01-10T11:56:56.806Z,49.35
2023-01-10T11:59:27.961Z,44.42
2023-01-10T12:02:00.683Z,42.00
2023-01-10T12:04:31.849Z,37.85
2023-01-10T12:07:03.303Z,38.05
2023-01-10T12:09:41.015Z,40.25
2023-01-10T12:12:21.971Z,42.22
2023-01-10T12:14:53.044Z,46.17
2023-01-10T12:17:26.542Z,45.03
2023-01-10T12:19:58.509Z,43.22
2023-01-10T12:22:32.208Z,41.83
2023-01-10T12:25:01.846Z,44.00
2023-01-10T12:27:30.984Z,40.75
2023-01-10T12:30:06.287Z,40.90
2023-01-10T12:32:40.071Z,43.70
2023-01-10T12:35:13.602Z,43.58
2023-01-10T12:37:43.978Z,43.25
2023-01-10T12:40:16.941Z,40.60
2023-01-10T12:43:13.106Z,44.42
2023-01-10T12:45:47.244Z,43.53
2023-01-10T12:48:22.346Z,42.15
2023-01-10T12:50:54.097Z,43.78
2023-01-10T12:53:30.648Z,47.30
2023-01-10T12:56:01.988Z,41.75
2023-01-10T12:58:37.566Z,48.55
2023-01-10T13:01:08.748Z,36.95
2023-01-10T13:03:37.844Z,40.40
2023-01-10T13:06:07.150Z,41.35
2023-01-10T13:08:37.221Z,45.40
2023-01-10T13:11:09.520Z,42.45
2023-01-10T13:13:40.477Z,45.10
2023-01-10T13:16:34.452Z,39.97
2023-01-10T13:19:06.521Z,44.17
2023-01-10T13:21:36.323Z,40.00
2023-01-10T13:24:06.910Z,40.17
2023-01-10T13:26:48.686Z,44.67
2023-01-10T13:29:20.410Z,39.53
2023-01-10T13:31:57.382Z,40.83
2023-01-10T13:34:29.067Z,43.67
2023-01-10T13:37:01.598Z,43.05
2023-01-10T13:39:34.435Z,39.58
2023-01-10T13:42:44.941Z,45.47
2023-01-10T13:48:27.696Z,42.00
2023-01-10T13:51:17.945Z,44.90
2023-01-10T13:53:54.998Z,45.92
2023-01-10T13:56:34.523Z,43.55
2023-01-10T13:59:21.380Z,38.05
2023-01-10T14:02:11.886Z,40.03
2023-01-10T14:04:47.536Z,43.22
2023-01-10T14:07:23.597Z,37.88
2023-01-10T14:09:53.235Z,35.97
2023-01-10T14:12:26.686Z,37.35
2023-01-10T14:15:00.141Z,41.78
2023-01-10T14:17:30.598Z,42.33
2023-01-10T14:20:05.005Z,40.85
2023-01-10T14:22:35.483Z,37.20
2023-01-10T14:25:06.347Z,39.67
2023-01-10T14:27:46.507Z,41.75
2023-01-10T14:30:20.416Z,44.55
2023-01-10T14:32:52.385Z,40.67
2023-01-10T14:35:24.048Z,43.67
2023-01-10T14:37:54.394Z,40.45
2023-01-10T14:40:28.427Z,39.78
2023-01-10T14:43:00.096Z,38.97
2023-01-10T14:45:36.548Z,37.10
2023-01-10T14:48:20.997Z,43.25
2023-01-10T14:50:51.328Z,32.20
2023-01-10T14:55:59.252Z,37.30
2023-01-10T14:58:28.269Z,37.30
2023-01-10T15:00:58.386Z,41.70
2023-01-10T15:03:27.237Z,42.75
2023-01-10T15:05:59.081Z,34.72
2023-01-10T15:08:30.398Z,44.75
2023-01-10T15:11:04.208Z,44.53
2023-01-10T15:13:35.950Z,39.78
2023-01-10T15:16:07.888Z,45.95
2023-01-10T15:18:39.406Z,42.88
2023-01-10T15:21:12.962Z,45.55
2023-01-10T15:23:43.613Z,45.67
2023-01-10T15:26:16.364Z,40.10
2023-01-10T15:28:48.691Z,43.10
2023-01-10T15:31:18.413Z,36.88
2023-01-10T15:33:56.385Z,44.55
2023-01-10T15:36:29.466Z,44.00
2023-01-10T15:38:58.388Z,43.80
2023-01-10T15:41:28.113Z,45.42
2023-01-10T15:43:56.511Z,44.47
2023-01-10T15:46:27.302Z,49.00
2023-01-10T15:48:58.964Z,47.95
2023-01-10T15:51:31.574Z,45.80
2023-01-10T15:54:05.422Z,48.35
2023-01-10T15:56:37.897Z,56.53
2023-01-10T15:59:07.737Z,54.97
2023-01-10T16:01:36.455Z,50.50
2023-01-10T16:04:06.482Z,47.28
2023-01-10T16:06:37.991Z,53.00
2023-01-10T16:09:08.643Z,52.03
2023-01-10T16:11:58.209Z,58.15
2023-01-10T16:14:30.484Z,52.80
2023-01-10T16:16:58.988Z,53.33
2023-01-10T16:19:28.321Z,50.03
2023-01-10T16:21:59.902Z,52.05
2023-01-10T16:24:30.445Z,50.42
2023-01-10T16:27:00.650Z,52.88
2023-01-10T16:29:29.522Z,54.80
2023-01-10T16:31:58.944Z,51.50
2023-01-10T16:34:27.446Z,46.63
2023-01-10T16:36:56.220Z,48.65
2023-01-10T16:39:26.520Z,42.95
2023-01-10T16:44:41.757Z,47.15
2023-01-10T16:47:10.583Z,48.28
2023-01-10T16:49:41.084Z,47.97
2023-01-10T16:52:14.384Z,47.95
2023-01-10T16:54:44.741Z,47.58
2023-01-10T16:59:43.989Z,49.13
2023-01-10T17:02:18.944Z,47.97
2023-01-10T17:04:48.055Z,48.70
2023-01-10T17:07:16.823Z,49.72
2023-01-10T17:09:47.318Z,48.72
2023-01-10T17:12:19.740Z,43.80
2023-01-10T17:14:49.495Z,48.45
2023-01-10T17:17:19.284Z,47.25
2023-01-10T17:19:47.875Z,52.53
2023-01-10T17:22:16.829Z,47.03
2023-01-10T17:24:47.217Z,52.33
2023-01-10T17:27:16.575Z,48.53
2023-01-10T17:29:45.409Z,50.55
2023-01-10T17:32:14.339Z,52.95
2023-01-10T17:34:42.896Z,47.28
2023-01-10T17:37:11.742Z,50.38
2023-01-10T17:39:40.631Z,49.25
2023-01-10T17:42:11.277Z,50.97
2023-01-10T17:47:09.322Z,50.03
2023-01-10T17:49:37.788Z,43.80
2023-01-10T17:52:06.692Z,43.83
2023-01-10T17:54:36.349Z,47.38
2023-01-10T17:57:05.523Z,41.75
2023-01-10T17:59:36.706Z,43.47
2023-01-10T18:02:06.106Z,43.70
2023-01-10T18:04:34.676Z,44.53
2023-01-10T18:07:03.535Z,45.00
2023-01-10T18:09:32.340Z,49.28
2023-01-10T18:12:01.238Z,44.65
2023-01-10T18:14:39.099Z,50.47
2023-01-10T18:17:11.407Z,54.40
2023-01-10T18:19:40.287Z,51.95
2023-01-10T18:22:22.896Z,51.85
2023-01-10T18:24:52.950Z,55.03
2023-01-10T18:27:22.010Z,51.65
2023-01-10T18:29:51.154Z,51.60
2023-01-10T18:32:22.630Z,61.35
2023-01-10T18:34:51.278Z,68.57
2023-01-10T18:37:20.245Z,53.83
2023-01-10T18:39:49.719Z,58.55
2023-01-10T18:42:18.623Z,58.07
2023-01-10T18:44:47.695Z,57.65
2023-01-10T18:47:16.512Z,52.97
2023-01-10T18:49:47.783Z,55.60
2023-01-10T18:52:17.410Z,58.00
2023-01-10T18:54:47.635Z,57.00
2023-01-10T18:57:16.481Z,62.70
2023-01-10T18:59:45.416Z,66.97
2023-01-10T19:02:15.413Z,65.45
2023-01-10T19:04:46.358Z,68.43
2023-01-10T19:07:16.736Z,66.22
2023-01-10T19:12:18.546Z,64.63
2023-01-10T19:14:47.429Z,66.63
2023-01-10T19:17:18.416Z,63.05
2023-01-10T19:19:47.087Z,66.47
2023-01-10T19:22:18.726Z,66.53
2023-01-10T19:24:47.675Z,68.93
2023-01-10T19:27:18.429Z,73.30
2023-01-10T19:29:50.052Z,69.45
2023-01-10T19:32:19.059Z,70.63
2023-01-10T19:34:47.586Z,70.30
2023-01-10T19:37:20.660Z,67.78
2023-01-10T19:39:50.940Z,73.38
2023-01-10T19:42:19.812Z,75.45
2023-01-10T19:44:48.849Z,69.28
2023-01-10T19:47:20.710Z,70.35
2023-01-10T19:49:49.343Z,75.07
2023-01-10T19:52:19.708Z,82.85
2023-01-10T19:54:50.812Z,71.70
2023-01-10T19:57:19.690Z,73.15
2023-01-10T19:59:51.841Z,84.65
2023-01-10T20:02:20.690Z,88.15
2023-01-10T20:04:49.497Z,89.90
2023-01-10T20:07:20.853Z,92.80
2023-01-10T20:09:49.932Z,93.32
2023-01-10T20:12:18.813Z,102.05
2023-01-10T20:14:47.671Z,163.10
2023-01-10T20:17:16.550Z,262.77
2023-01-10T20:19:45.112Z,424.58
2023-01-10T20:22:13.915Z,502.13
2023-01-10T20:24:45.331Z,538.03
2023-01-10T20:27:14.170Z,557.47
2023-01-10T20:29:45.888Z,516.22
2023-01-10T20:32:15.260Z,495.58
2023-01-10T20:34:44.744Z,387.30
2023-01-10T20:37:14.332Z,529.88
2023-01-10T20:39:44.786Z,474.27
2023-01-10T20:42:13.703Z,281.67
2023-01-10T20:44:42.461Z,540.80
2023-01-10T20:47:11.276Z,387.92
2023-01-10T20:49:39.818Z,465.60
2023-01-10T20:52:10.005Z,336.77
2023-01-10T20:54:38.993Z,353.63
2023-01-10T20:57:09.291Z,464.48
2023-01-10T20:59:39.203Z,374.65
2023-01-10T21:02:08.494Z,391.42
2023-01-10T21:04:37.217Z,298.10
2023-01-10T21:07:06.898Z,380.42
2023-01-10T21:09:35.805Z,307.23
2023-01-10T21:12:21.747Z,399.17
2023-01-10T21:14:53.910Z,289.75
2023-01-10T21:17:25.401Z,228.60
2023-01-10T21:19:53.856Z,285.42
2023-01-10T21:22:22.691Z,271.95
2023-01-10T21:24:52.959Z,164.13
2023-01-10T21:29:50.308Z,350.23
2023-01-10T21:32:20.657Z,296.80
2023-01-10T21:37:18.223Z,197.80
2023-01-10T21:39:47.011Z,280.33
2023-01-10T21:42:33.095Z,334.25
2023-01-10T21:45:02.030Z,331.25
2023-01-10T21:47:32.325Z,224.85
2023-01-10T21:50:01.378Z,222.05
2023-01-10T21:52:29.838Z,356.40
2023-01-10T21:54:59.019Z,451.55
2023-01-10T21:57:28.370Z,443.25
2023-01-10T21:59:57.142Z,400.50
2023-01-10T22:02:27.433Z,358.92
2023-01-10T22:04:58.179Z,353.98
2023-01-10T22:07:28.841Z,241.18
2023-01-10T22:09:57.696Z,386.33
2023-01-10T22:12:27.925Z,234.45
2023-01-10T22:17:26.245Z,317.48
2023-01-10T22:19:57.265Z,142.57
2023-01-10T22:22:26.417Z,217.38
2023-01-10T22:24:55.277Z,435.40
2023-01-10T22:27:24.316Z,527.60
2023-01-10T22:29:53.269Z,169.85
2023-01-10T22:32:22.335Z,197.00
2023-01-10T22:34:50.903Z,222.13
2023-01-10T22:37:21.258Z,258.08
2023-01-10T22:42:19.968Z,221.60
2023-01-10T22:44:49.095Z,383.02
2023-01-10T22:47:18.015Z,470.73
2023-01-10T22:49:47.054Z,250.15
2023-01-10T22:52:15.961Z,155.52
2023-01-10T22:54:46.413Z,258.13
2023-01-10T22:57:15.666Z,206.65
2023-01-10T22:59:44.572Z,180.38
2023-01-10T23:02:14.208Z,208.25
2023-01-10T23:04:42.931Z,237.10
2023-01-10T23:07:13.079Z,245.55
2023-01-10T23:09:41.770Z,207.50
2023-01-10T23:12:12.048Z,301.33
2023-01-10T23:17:09.350Z,260.55
2023-01-10T23:19:37.675Z,225.65
2023-01-10T23:22:06.381Z,169.85
2023-01-10T23:24:35.061Z,152.95
2023-01-10T23:27:03.858Z,198.32
2023-01-10T23:29:33.957Z,136.35
2023-01-10T23:32:02.832Z,144.82
2023-01-10T23:34:31.455Z,145.35
2023-01-10T23:37:00.191Z,223.85
2023-01-10T23:39:30.098Z,225.45
2023-01-10T23:41:58.859Z,170.48
2023-01-10T23:44:28.885Z,156.18
2023-01-10T23:47:00.000Z,158.20
2023-01-10T23:49:28.757Z,153.77
2023-01-10T23:51:57.498Z,173.52
2023-01-10T23:54:26.313Z,265.90
2023-01-10T23:56:55.054Z,250.75
2023-01-10T23:59:24.029Z,185.00
